CFG524 EDDF-GMAD
Flight info
| Callsign | CFG524 |
|---|---|
| Flight time | N/A |
| Altitude | 35000 |
| Route | ANEKI2L/18 ANEKI Y163 HERBI Y164 MOPAN DCT LUTIX DCT BENOT DCT NEMOS DCT NINTU DCT MEBAK DCT REPSI DCT LERGA DCT MINSO DCT NARAK DCT AGN DCT MAQAB DCT TIVLI DCT ELSAP DCT ZAR DCT EXEMU DCT PISUS DCT EDIMU DCT ADUXO DCT NUSGO DCT OBIBO DCT NASOS L27 BLN DCT MGA/N0457F370 DCT PIMOS DCT GALTO UN869 PELAX UB11 MAK UG850 BIDLA G850 OLOMA |
| Aircraft | A21N/M-SBDE3FGHIJ1J4J7LORVWXYZ/SB2D1G1 |
Departure
| Time | 2026-05-04 10:57 |
|---|---|
| Airport | Frankfurt Main Airport (EDDF) |
Arrival
| Time | N/A |
|---|---|
| Airport | Al Massira Airport (GMAD) |
| Time | Latitude | Longitude | Altitude | Speed | Heading |
|---|---|---|---|---|---|
| 2026-05-04 10:41 | 50.03872 | 8.54792 | 351 ft | 0 kts | 160° |
| 2026-05-04 10:51 | 50.03827 | 8.54816 | 352 ft | 6 kts | 167° |
| 2026-05-04 10:52 | 50.03773 | 8.54778 | 351 ft | 10 kts | 240° |
| 2026-05-04 10:52 | 50.03746 | 8.54650 | 351 ft | 13 kts | 253° |
| 2026-05-04 10:52 | 50.03709 | 8.54491 | 351 ft | 16 kts | 248° |
| 2026-05-04 10:54 | 50.03344 | 8.52997 | 351 ft | 19 kts | 250° |
| 2026-05-04 10:54 | 50.03296 | 8.52800 | 351 ft | 18 kts | 250° |
| 2026-05-04 10:56 | 50.03170 | 8.52601 | 352 ft | 15 kts | 178° |
| 2026-05-04 10:56 | 50.02811 | 8.52609 | 352 ft | 86 kts | 179° |
| 2026-05-04 10:56 | 50.01993 | 8.52615 | 352 ft | 146 kts | 180° |
| 2026-05-04 10:57 | 50.00819 | 8.52638 | 469 ft | 182 kts | 179° |
| 2026-05-04 10:57 | 49.99539 | 8.52681 | 1001 ft | 188 kts | 178° |
| 2026-05-04 10:57 | 49.98225 | 8.52779 | 1709 ft | 189 kts | 178° |
| 2026-05-04 10:57 | 49.96928 | 8.52878 | 2336 ft | 190 kts | 178° |
| 2026-05-04 10:58 | 49.95554 | 8.52979 | 2626 ft | 203 kts | 178° |
| 2026-05-04 10:58 | 49.94090 | 8.53082 | 2944 ft | 215 kts | 178° |
| 2026-05-04 10:58 | 49.92525 | 8.53190 | 3136 ft | 235 kts | 178° |
| 2026-05-04 10:58 | 49.90862 | 8.53302 | 3445 ft | 250 kts | 178° |
| 2026-05-04 10:59 | 49.89061 | 8.53422 | 3866 ft | 262 kts | 178° |
| 2026-05-04 10:59 | 49.87233 | 8.53546 | 4500 ft | 265 kts | 179° |
| 2026-05-04 10:59 | 49.85386 | 8.53672 | 5154 ft | 267 kts | 178° |
| 2026-05-04 10:59 | 49.83524 | 8.53799 | 5769 ft | 270 kts | 179° |
| 2026-05-04 11:00 | 49.81637 | 8.53928 | 6406 ft | 273 kts | 179° |
| 2026-05-04 11:01 | 49.68199 | 8.52846 | 10565 ft | 290 kts | 187° |
| 2026-05-04 11:02 | 49.66099 | 8.52559 | 10827 ft | 304 kts | 187° |
| 2026-05-04 11:02 | 49.63965 | 8.52270 | 11086 ft | 317 kts | 186° |
| 2026-05-04 11:05 | 49.30293 | 8.47858 | 17429 ft | 365 kts | 187° |
| 2026-05-04 11:06 | 49.27758 | 8.47530 | 17809 ft | 368 kts | 187° |
| 2026-05-04 11:06 | 49.25225 | 8.47200 | 18199 ft | 370 kts | 187° |
| 2026-05-04 11:06 | 49.22625 | 8.46861 | 18621 ft | 371 kts | 187° |
| 2026-05-04 11:06 | 49.20056 | 8.46526 | 19042 ft | 373 kts | 187° |
| 2026-05-04 11:08 | 49.01783 | 8.43161 | 21641 ft | 382 kts | 194° |
| 2026-05-04 11:10 | 48.83327 | 8.36752 | 23823 ft | 394 kts | 195° |
| 2026-05-04 11:12 | 48.64377 | 8.29926 | 25732 ft | 405 kts | 195° |
| 2026-05-04 11:12 | 48.61681 | 8.28943 | 25994 ft | 406 kts | 195° |
| 2026-05-04 11:12 | 48.58941 | 8.27947 | 26249 ft | 407 kts | 195° |
| 2026-05-04 11:12 | 48.56176 | 8.26942 | 26482 ft | 408 kts | 195° |
| 2026-05-04 11:13 | 48.53415 | 8.25940 | 26696 ft | 410 kts | 195° |
| 2026-05-04 11:13 | 48.50629 | 8.24932 | 26929 ft | 411 kts | 195° |
| 2026-05-04 11:13 | 48.47851 | 8.23926 | 27171 ft | 412 kts | 195° |
| 2026-05-04 11:13 | 48.45047 | 8.22902 | 27396 ft | 413 kts | 195° |
| 2026-05-04 11:14 | 48.42275 | 8.21887 | 27613 ft | 415 kts | 195° |
| 2026-05-04 11:14 | 48.39455 | 8.20856 | 27813 ft | 416 kts | 195° |
| 2026-05-04 11:14 | 48.36657 | 8.19834 | 28006 ft | 418 kts | 195° |
| 2026-05-04 11:16 | 48.18195 | 8.08079 | 29574 ft | 417 kts | 223° |
| 2026-05-04 11:16 | 48.16090 | 8.05119 | 29864 ft | 416 kts | 223° |
| 2026-05-04 11:16 | 48.13970 | 8.02119 | 30149 ft | 415 kts | 223° |
| 2026-05-04 11:17 | 48.11894 | 7.99180 | 30452 ft | 413 kts | 223° |
| 2026-05-04 11:17 | 48.09758 | 7.96272 | 30748 ft | 412 kts | 219° |
| 2026-05-04 11:19 | 47.92493 | 7.81427 | 32367 ft | 411 kts | 202° |
| 2026-05-04 11:19 | 47.89921 | 7.79935 | 32641 ft | 408 kts | 203° |
| 2026-05-04 11:19 | 47.87290 | 7.78367 | 32908 ft | 407 kts | 204° |
| 2026-05-04 11:19 | 47.84672 | 7.76804 | 33153 ft | 406 kts | 204° |
| 2026-05-04 11:20 | 47.82085 | 7.75263 | 33373 ft | 405 kts | 204° |
| 2026-05-04 11:20 | 47.79442 | 7.73696 | 33542 ft | 406 kts | 204° |
| 2026-05-04 11:20 | 47.76825 | 7.72149 | 33687 ft | 407 kts | 204° |
| 2026-05-04 11:20 | 47.74211 | 7.70609 | 33846 ft | 407 kts | 204° |
| 2026-05-04 11:22 | 47.55726 | 7.59781 | 34860 ft | 410 kts | 204° |
| 2026-05-04 11:22 | 47.53079 | 7.58234 | 34974 ft | 410 kts | 203° |
| 2026-05-04 11:23 | 47.47752 | 7.55134 | 35011 ft | 411 kts | 204° |
| 2026-05-04 11:25 | 47.29195 | 7.44380 | 35011 ft | 409 kts | 203° |
| 2026-05-04 11:25 | 47.23894 | 7.41244 | 35009 ft | 409 kts | 206° |
| 2026-05-04 11:27 | 47.05233 | 7.16325 | 35002 ft | 408 kts | 230° |
| 2026-05-04 11:28 | 47.01725 | 7.09893 | 35005 ft | 407 kts | 230° |
| 2026-05-04 11:28 | 46.98187 | 7.03425 | 35016 ft | 407 kts | 230° |
| 2026-05-04 11:29 | 46.94634 | 6.96945 | 35028 ft | 406 kts | 230° |
| 2026-05-04 11:29 | 46.91118 | 6.90547 | 35034 ft | 407 kts | 230° |
| 2026-05-04 11:33 | 46.66023 | 6.45408 | 35005 ft | 407 kts | 230° |
| 2026-05-04 11:33 | 46.62434 | 6.39009 | 35002 ft | 406 kts | 230° |
| 2026-05-04 11:34 | 46.58845 | 6.32629 | 34986 ft | 406 kts | 229° |
| 2026-05-04 11:34 | 46.55267 | 6.26282 | 35004 ft | 407 kts | 228° |
| 2026-05-04 11:35 | 46.51699 | 6.19973 | 35008 ft | 407 kts | 227° |
| 2026-05-04 11:35 | 46.48109 | 6.13629 | 34995 ft | 408 kts | 229° |
| 2026-05-04 11:36 | 46.44505 | 6.07277 | 35006 ft | 408 kts | 229° |
| 2026-05-04 11:36 | 46.40913 | 6.00960 | 35030 ft | 407 kts | 229° |
| 2026-05-04 11:37 | 46.37310 | 5.94638 | 35043 ft | 408 kts | 229° |
| 2026-05-04 11:37 | 46.33702 | 5.88319 | 35007 ft | 406 kts | 229° |
| 2026-05-04 11:38 | 46.30106 | 5.82035 | 34978 ft | 407 kts | 229° |
| 2026-05-04 11:38 | 46.26491 | 5.75741 | 34991 ft | 408 kts | 228° |
| 2026-05-04 11:39 | 46.22866 | 5.69438 | 34963 ft | 408 kts | 228° |
| 2026-05-04 11:41 | 46.10684 | 5.46896 | 34975 ft | 409 kts | 233° |
| 2026-05-04 11:41 | 46.07454 | 5.40178 | 34989 ft | 409 kts | 233° |
| 2026-05-04 11:42 | 46.04223 | 5.33467 | 34974 ft | 409 kts | 232° |
| 2026-05-04 11:42 | 46.01005 | 5.26796 | 34979 ft | 409 kts | 232° |
| 2026-05-04 11:43 | 45.97747 | 5.20061 | 34983 ft | 409 kts | 232° |
| 2026-05-04 11:43 | 45.94516 | 5.13389 | 35026 ft | 410 kts | 232° |
| 2026-05-04 11:44 | 45.91246 | 5.06658 | 35023 ft | 410 kts | 232° |
| 2026-05-04 11:44 | 45.87965 | 4.99918 | 35045 ft | 410 kts | 232° |
| 2026-05-04 11:45 | 45.84681 | 4.93187 | 35037 ft | 410 kts | 232° |
| 2026-05-04 11:45 | 45.81407 | 4.86491 | 35031 ft | 409 kts | 232° |
| 2026-05-04 11:46 | 45.78141 | 4.79837 | 35037 ft | 408 kts | 232° |
| 2026-05-04 11:46 | 45.74880 | 4.73197 | 35033 ft | 410 kts | 232° |
| 2026-05-04 11:47 | 45.71592 | 4.66527 | 35022 ft | 409 kts | 232° |
| 2026-05-04 11:47 | 45.68305 | 4.59865 | 34987 ft | 410 kts | 232° |
| 2026-05-04 11:48 | 45.65012 | 4.53219 | 34996 ft | 410 kts | 232° |
| 2026-05-04 11:48 | 45.61733 | 4.46609 | 34990 ft | 409 kts | 233° |
| 2026-05-04 11:49 | 45.58445 | 4.39989 | 34992 ft | 410 kts | 232° |
| 2026-05-04 11:49 | 45.55172 | 4.33416 | 35012 ft | 409 kts | 232° |
| 2026-05-04 11:50 | 45.51870 | 4.26807 | 35004 ft | 408 kts | 232° |
| 2026-05-04 11:50 | 45.48582 | 4.20251 | 35008 ft | 408 kts | 232° |
| 2026-05-04 11:51 | 45.45282 | 4.13674 | 35004 ft | 408 kts | 231° |
| 2026-05-04 11:51 | 45.41982 | 4.07130 | 35002 ft | 408 kts | 231° |
| 2026-05-04 11:52 | 45.38691 | 4.00605 | 34973 ft | 408 kts | 231° |
| 2026-05-04 11:52 | 45.35379 | 3.94063 | 34938 ft | 409 kts | 232° |
| 2026-05-04 11:53 | 45.32066 | 3.87515 | 34965 ft | 409 kts | 232° |
| 2026-05-04 11:53 | 45.28738 | 3.80968 | 34943 ft | 408 kts | 232° |
| 2026-05-04 11:55 | 45.15677 | 3.54672 | 34992 ft | 408 kts | 233° |
| 2026-05-04 11:56 | 45.12409 | 3.48068 | 34990 ft | 408 kts | 233° |
| 2026-05-04 11:56 | 45.09164 | 3.41525 | 34960 ft | 408 kts | 233° |
| 2026-05-04 11:57 | 45.05931 | 3.35025 | 34961 ft | 409 kts | 233° |
| 2026-05-04 11:57 | 45.02641 | 3.28420 | 34949 ft | 408 kts | 232° |
| 2026-05-04 11:58 | 44.99392 | 3.21922 | 34950 ft | 406 kts | 233° |
| 2026-05-04 11:58 | 44.96137 | 3.15418 | 34927 ft | 408 kts | 233° |
| 2026-05-04 11:59 | 44.92861 | 3.08887 | 34955 ft | 407 kts | 233° |
| 2026-05-04 11:59 | 44.89578 | 3.02353 | 34945 ft | 409 kts | 233° |
| 2026-05-04 12:00 | 44.86282 | 2.95816 | 34952 ft | 409 kts | 233° |
| 2026-05-04 12:00 | 44.83115 | 2.89200 | 34938 ft | 409 kts | 235° |
| 2026-05-04 12:01 | 44.80015 | 2.82476 | 34933 ft | 408 kts | 235° |
| 2026-05-04 12:02 | 44.69268 | 2.59255 | 34949 ft | 404 kts | 235° |
| 2026-05-04 12:03 | 44.66228 | 2.52714 | 34949 ft | 403 kts | 235° |
| 2026-05-04 12:03 | 44.63145 | 2.46099 | 34953 ft | 404 kts | 235° |
| 2026-05-04 12:04 | 44.60080 | 2.39542 | 34956 ft | 402 kts | 235° |
| 2026-05-04 12:04 | 44.57021 | 2.33005 | 34949 ft | 402 kts | 234° |
| 2026-05-04 12:05 | 44.53957 | 2.26478 | 34959 ft | 401 kts | 234° |
| 2026-05-04 12:05 | 44.50906 | 2.19991 | 34956 ft | 401 kts | 234° |
| 2026-05-04 12:06 | 44.47852 | 2.13511 | 34943 ft | 399 kts | 234° |
| 2026-05-04 12:06 | 44.44807 | 2.07062 | 34941 ft | 399 kts | 235° |
| 2026-05-04 12:07 | 44.41758 | 2.00621 | 34940 ft | 399 kts | 234° |
| 2026-05-04 12:07 | 44.38688 | 1.94151 | 34930 ft | 399 kts | 234° |
| 2026-05-04 12:08 | 44.35611 | 1.87678 | 34939 ft | 400 kts | 235° |
| 2026-05-04 12:08 | 44.32542 | 1.81237 | 34933 ft | 401 kts | 235° |
| 2026-05-04 12:09 | 44.29471 | 1.74806 | 34930 ft | 400 kts | 235° |
| 2026-05-04 12:09 | 44.26463 | 1.68292 | 34935 ft | 401 kts | 236° |
| 2026-05-04 12:10 | 44.23479 | 1.61775 | 34944 ft | 400 kts | 236° |
| 2026-05-04 12:10 | 44.20470 | 1.55231 | 34929 ft | 400 kts | 236° |
| 2026-05-04 12:11 | 44.17482 | 1.48754 | 34935 ft | 399 kts | 236° |
| 2026-05-04 12:11 | 44.14486 | 1.42277 | 34940 ft | 399 kts | 236° |
| 2026-05-04 12:12 | 44.11476 | 1.35779 | 34931 ft | 398 kts | 236° |
| 2026-05-04 12:12 | 44.08500 | 1.29374 | 34936 ft | 397 kts | 235° |
| 2026-05-04 12:14 | 43.96476 | 1.03632 | 34927 ft | 397 kts | 235° |
| 2026-05-04 12:15 | 43.93460 | 0.97211 | 34913 ft | 398 kts | 235° |
| 2026-05-04 12:15 | 43.90319 | 0.90980 | 34915 ft | 396 kts | 231° |
| 2026-05-04 12:16 | 43.86752 | 0.85212 | 34922 ft | 396 kts | 226° |
| 2026-05-04 12:16 | 43.82801 | 0.79969 | 34889 ft | 395 kts | 221° |
| 2026-05-04 12:17 | 43.78708 | 0.74890 | 34893 ft | 396 kts | 221° |
| 2026-05-04 12:17 | 43.74609 | 0.69819 | 34906 ft | 396 kts | 221° |
| 2026-05-04 12:18 | 43.70496 | 0.64748 | 34907 ft | 394 kts | 221° |
| 2026-05-04 12:18 | 43.66436 | 0.59755 | 34916 ft | 394 kts | 221° |
| 2026-05-04 12:19 | 43.62324 | 0.54713 | 34904 ft | 394 kts | 221° |
| 2026-05-04 12:19 | 43.58258 | 0.49733 | 34894 ft | 393 kts | 221° |
| 2026-05-04 12:20 | 43.54184 | 0.44753 | 34898 ft | 393 kts | 221° |
| 2026-05-04 12:20 | 43.50075 | 0.39742 | 34921 ft | 394 kts | 221° |
| 2026-05-04 12:21 | 43.45995 | 0.34768 | 34900 ft | 393 kts | 221° |
| 2026-05-04 12:21 | 43.41907 | 0.29807 | 34914 ft | 391 kts | 221° |
| 2026-05-04 12:22 | 43.37829 | 0.24866 | 34902 ft | 392 kts | 221° |
| 2026-05-04 12:22 | 43.33765 | 0.19960 | 34932 ft | 391 kts | 221° |
| 2026-05-04 12:23 | 43.29673 | 0.15016 | 34936 ft | 394 kts | 221° |
| 2026-05-04 12:23 | 43.25585 | 0.10094 | 34945 ft | 393 kts | 221° |
| 2026-05-04 12:24 | 43.21457 | 0.05128 | 34959 ft | 392 kts | 221° |
| 2026-05-04 12:24 | 43.17378 | 0.00233 | 35111 ft | 391 kts | 220° |
| 2026-05-04 12:25 | 43.15328 | -0.02224 | 34908 ft | 390 kts | 221° |
| 2026-05-04 12:25 | 43.13302 | -0.04649 | 34948 ft | 391 kts | 221° |
| 2026-05-04 12:25 | 43.09204 | -0.09550 | 35017 ft | 391 kts | 220° |
| 2026-05-04 12:26 | 43.07163 | -0.11987 | 34905 ft | 389 kts | 221° |
| 2026-05-04 12:26 | 43.05135 | -0.14408 | 35039 ft | 390 kts | 221° |
| 2026-05-04 12:26 | 43.01054 | -0.19270 | 34995 ft | 390 kts | 221° |
| 2026-05-04 12:27 | 42.96962 | -0.24139 | 34966 ft | 390 kts | 221° |
| 2026-05-04 12:27 | 42.92892 | -0.28976 | 34962 ft | 391 kts | 221° |
| 2026-05-04 12:28 | 42.88778 | -0.33849 | 34883 ft | 390 kts | 221° |
| 2026-05-04 12:28 | 42.84593 | -0.38510 | 35028 ft | 391 kts | 217° |
| 2026-05-04 12:29 | 42.82358 | -0.40656 | 34859 ft | 391 kts | 215° |
| 2026-05-04 12:29 | 42.80067 | -0.42629 | 34987 ft | 391 kts | 212° |
| 2026-05-04 12:29 | 42.75267 | -0.46119 | 34913 ft | 393 kts | 207° |
| 2026-05-04 12:30 | 42.70204 | -0.48992 | 34935 ft | 393 kts | 204° |
| 2026-05-04 12:30 | 42.65140 | -0.51677 | 34993 ft | 393 kts | 204° |
| 2026-05-04 12:31 | 42.62597 | -0.53021 | 34864 ft | 392 kts | 204° |
| 2026-05-04 12:31 | 42.60034 | -0.54372 | 34922 ft | 392 kts | 204° |
| 2026-05-04 12:31 | 42.54955 | -0.57042 | 35006 ft | 393 kts | 204° |
| 2026-05-04 12:32 | 42.52397 | -0.58385 | 34843 ft | 393 kts | 204° |
| 2026-05-04 12:32 | 42.47304 | -0.61049 | 34908 ft | 393 kts | 204° |
| 2026-05-04 12:33 | 42.42172 | -0.63729 | 34898 ft | 394 kts | 204° |
| 2026-05-04 12:33 | 42.37092 | -0.66377 | 34922 ft | 394 kts | 204° |
| 2026-05-04 12:34 | 42.31945 | -0.69056 | 35028 ft | 394 kts | 204° |
| 2026-05-04 12:34 | 42.26805 | -0.71729 | 34945 ft | 395 kts | 203° |
| 2026-05-04 12:35 | 42.21636 | -0.74405 | 34888 ft | 396 kts | 204° |
| 2026-05-04 12:35 | 42.16504 | -0.77061 | 34888 ft | 394 kts | 204° |
| 2026-05-04 12:36 | 42.11385 | -0.79712 | 34895 ft | 394 kts | 204° |
| 2026-05-04 12:36 | 42.06267 | -0.82351 | 34882 ft | 393 kts | 204° |
| 2026-05-04 12:37 | 42.01125 | -0.85005 | 34916 ft | 394 kts | 204° |
| 2026-05-04 12:37 | 41.96005 | -0.87626 | 34870 ft | 394 kts | 204° |
| 2026-05-04 12:38 | 41.90862 | -0.90264 | 34922 ft | 396 kts | 204° |
| 2026-05-04 12:38 | 41.85725 | -0.92895 | 34939 ft | 395 kts | 204° |
| 2026-05-04 12:39 | 41.80583 | -0.95522 | 34927 ft | 394 kts | 204° |
| 2026-05-04 12:39 | 41.75456 | -0.98139 | 34881 ft | 394 kts | 204° |
| 2026-05-04 12:40 | 41.70323 | -1.00802 | 34940 ft | 396 kts | 205° |
| 2026-05-04 12:40 | 41.65370 | -1.03967 | 34964 ft | 391 kts | 211° |
| 2026-05-04 12:41 | 41.60743 | -1.07715 | 34951 ft | 389 kts | 216° |
| 2026-05-04 12:41 | 41.56286 | -1.11797 | 34916 ft | 389 kts | 216° |
| 2026-05-04 12:42 | 41.51791 | -1.15905 | 34949 ft | 388 kts | 216° |
| 2026-05-04 12:42 | 41.47342 | -1.19980 | 34924 ft | 391 kts | 216° |
| 2026-05-04 12:43 | 41.42862 | -1.24077 | 34899 ft | 391 kts | 216° |
| 2026-05-04 12:43 | 41.38347 | -1.28197 | 34932 ft | 390 kts | 216° |
| 2026-05-04 12:44 | 41.33868 | -1.32279 | 34917 ft | 391 kts | 217° |
| 2026-05-04 12:44 | 41.29361 | -1.36383 | 34975 ft | 389 kts | 217° |
| 2026-05-04 12:45 | 41.24897 | -1.40443 | 34936 ft | 389 kts | 216° |
| 2026-05-04 12:45 | 41.20377 | -1.44547 | 34938 ft | 391 kts | 216° |
| 2026-05-04 12:46 | 41.15865 | -1.48627 | 34952 ft | 390 kts | 216° |
| 2026-05-04 12:46 | 41.11349 | -1.52703 | 34936 ft | 389 kts | 217° |
| 2026-05-04 12:47 | 41.06800 | -1.56808 | 34962 ft | 390 kts | 217° |
| 2026-05-04 12:47 | 41.02293 | -1.60871 | 34896 ft | 388 kts | 217° |
| 2026-05-04 12:48 | 40.97776 | -1.64932 | 34925 ft | 389 kts | 217° |
| 2026-05-04 12:48 | 40.93270 | -1.68980 | 35003 ft | 391 kts | 217° |
| 2026-05-04 12:49 | 40.88789 | -1.72999 | 34939 ft | 389 kts | 216° |
| 2026-05-04 12:49 | 40.84301 | -1.77021 | 34928 ft | 390 kts | 217° |
| 2026-05-04 12:50 | 40.79805 | -1.81038 | 34995 ft | 391 kts | 217° |
| 2026-05-04 12:50 | 40.75307 | -1.85050 | 34999 ft | 391 kts | 217° |
| 2026-05-04 12:51 | 40.70803 | -1.89055 | 34983 ft | 390 kts | 217° |
| 2026-05-04 12:51 | 40.66307 | -1.93045 | 34970 ft | 390 kts | 217° |
| 2026-05-04 12:52 | 40.61801 | -1.97046 | 34955 ft | 391 kts | 217° |
| 2026-05-04 12:52 | 40.57301 | -2.01030 | 34952 ft | 392 kts | 217° |
| 2026-05-04 12:53 | 40.52760 | -2.05043 | 34980 ft | 391 kts | 217° |
| 2026-05-04 12:53 | 40.48232 | -2.09040 | 34998 ft | 392 kts | 217° |
| 2026-05-04 12:54 | 40.43702 | -2.13029 | 34957 ft | 392 kts | 217° |
| 2026-05-04 12:54 | 40.39178 | -2.17009 | 34965 ft | 393 kts | 217° |
| 2026-05-04 12:55 | 40.34580 | -2.21041 | 35002 ft | 393 kts | 217° |
| 2026-05-04 12:55 | 40.29957 | -2.25093 | 34970 ft | 393 kts | 217° |
| 2026-05-04 12:56 | 40.25338 | -2.29134 | 34979 ft | 393 kts | 217° |
| 2026-05-04 12:56 | 40.20786 | -2.33112 | 34971 ft | 392 kts | 217° |
| 2026-05-04 12:57 | 40.16200 | -2.37113 | 34974 ft | 392 kts | 217° |
| 2026-05-04 12:57 | 40.11689 | -2.41043 | 34954 ft | 392 kts | 217° |
| 2026-05-04 12:58 | 40.07127 | -2.45006 | 34966 ft | 393 kts | 218° |
| 2026-05-04 12:58 | 40.02465 | -2.49056 | 34980 ft | 392 kts | 218° |
| 2026-05-04 12:59 | 39.97806 | -2.53096 | 34981 ft | 392 kts | 218° |
| 2026-05-04 12:59 | 39.93250 | -2.57038 | 34976 ft | 393 kts | 218° |
| 2026-05-04 13:00 | 39.88685 | -2.60983 | 34952 ft | 393 kts | 218° |
| 2026-05-04 13:00 | 39.84130 | -2.64914 | 34959 ft | 394 kts | 218° |
| 2026-05-04 13:01 | 39.79565 | -2.68846 | 34989 ft | 394 kts | 217° |
| 2026-05-04 13:01 | 39.75024 | -2.72753 | 34974 ft | 393 kts | 217° |
| 2026-05-04 13:02 | 39.70478 | -2.76659 | 34983 ft | 393 kts | 217° |
| 2026-05-04 13:02 | 39.65909 | -2.80574 | 34960 ft | 393 kts | 217° |
| 2026-05-04 13:03 | 39.61357 | -2.84467 | 35003 ft | 393 kts | 217° |
| 2026-05-04 13:03 | 39.56764 | -2.88391 | 34975 ft | 394 kts | 218° |
| 2026-05-04 13:04 | 39.52213 | -2.92280 | 34975 ft | 393 kts | 217° |
| 2026-05-04 13:04 | 39.47646 | -2.96169 | 34976 ft | 394 kts | 218° |
| 2026-05-04 13:05 | 39.43009 | -3.00027 | 34982 ft | 396 kts | 215° |
| 2026-05-04 13:05 | 39.38148 | -3.03350 | 34993 ft | 400 kts | 210° |
| 2026-05-04 13:06 | 39.32975 | -3.06089 | 34998 ft | 403 kts | 206° |
| 2026-05-04 13:06 | 39.27750 | -3.08645 | 34968 ft | 401 kts | 207° |
| 2026-05-04 13:07 | 39.22490 | -3.11213 | 34972 ft | 403 kts | 207° |
| 2026-05-04 13:07 | 39.17251 | -3.13761 | 34977 ft | 402 kts | 206° |
| 2026-05-04 13:08 | 39.11993 | -3.16311 | 35000 ft | 401 kts | 206° |
| 2026-05-04 13:08 | 39.06694 | -3.18877 | 34973 ft | 401 kts | 206° |
| 2026-05-04 13:09 | 39.01442 | -3.21415 | 35002 ft | 401 kts | 207° |
| 2026-05-04 13:09 | 38.96182 | -3.23943 | 34995 ft | 401 kts | 207° |
| 2026-05-04 13:10 | 38.91030 | -3.26421 | 34989 ft | 401 kts | 207° |
| 2026-05-04 13:10 | 38.85795 | -3.28933 | 34992 ft | 401 kts | 207° |
| 2026-05-04 13:11 | 38.80544 | -3.31451 | 34998 ft | 401 kts | 207° |
| 2026-05-04 13:11 | 38.74870 | -3.34168 | 34997 ft | 401 kts | 207° |
| 2026-05-04 13:12 | 38.69085 | -3.36932 | 34994 ft | 400 kts | 207° |
| 2026-05-04 13:12 | 38.63164 | -3.39757 | 34995 ft | 401 kts | 207° |
| 2026-05-04 13:13 | 38.57579 | -3.42420 | 34991 ft | 402 kts | 207° |
| 2026-05-04 13:13 | 38.52038 | -3.45052 | 34996 ft | 401 kts | 207° |
| 2026-05-04 13:14 | 38.46592 | -3.47638 | 34995 ft | 401 kts | 207° |
| 2026-05-04 13:14 | 38.41129 | -3.50230 | 34988 ft | 400 kts | 207° |
| 2026-05-04 13:15 | 38.35714 | -3.52792 | 34990 ft | 400 kts | 207° |
| 2026-05-04 13:15 | 38.30210 | -3.55395 | 34990 ft | 400 kts | 207° |
| 2026-05-04 13:16 | 38.24669 | -3.58011 | 34988 ft | 400 kts | 207° |
| 2026-05-04 13:16 | 38.19028 | -3.60670 | 34987 ft | 400 kts | 207° |
| 2026-05-04 13:17 | 38.13497 | -3.63445 | 34995 ft | 397 kts | 211° |
| 2026-05-04 13:17 | 38.08101 | -3.66498 | 35000 ft | 397 kts | 210° |
| 2026-05-04 13:18 | 38.02769 | -3.69508 | 35002 ft | 397 kts | 210° |
| 2026-05-04 13:18 | 37.97453 | -3.72512 | 35002 ft | 398 kts | 210° |
| 2026-05-04 13:19 | 37.92249 | -3.75446 | 34999 ft | 398 kts | 210° |
| 2026-05-04 13:19 | 37.87078 | -3.78357 | 34997 ft | 397 kts | 210° |
| 2026-05-04 13:20 | 37.82004 | -3.81210 | 34993 ft | 396 kts | 210° |
| 2026-05-04 13:20 | 37.76975 | -3.84034 | 34991 ft | 395 kts | 210° |
| 2026-05-04 13:21 | 37.71906 | -3.86877 | 34995 ft | 395 kts | 211° |
| 2026-05-04 13:21 | 37.66854 | -3.89709 | 34996 ft | 396 kts | 211° |
| 2026-05-04 13:22 | 37.61754 | -3.92558 | 35003 ft | 395 kts | 211° |
| 2026-05-04 13:22 | 37.56718 | -3.95372 | 35003 ft | 395 kts | 211° |
| 2026-05-04 13:23 | 37.51654 | -3.98195 | 35003 ft | 395 kts | 211° |
| 2026-05-04 13:23 | 37.46594 | -4.01010 | 35011 ft | 394 kts | 211° |
| 2026-05-04 13:24 | 37.41532 | -4.03824 | 35023 ft | 394 kts | 211° |
| 2026-05-04 13:24 | 37.36476 | -4.06633 | 35024 ft | 394 kts | 211° |
| 2026-05-04 13:25 | 37.28894 | -4.10833 | 35018 ft | 393 kts | 211° |
| 2026-05-04 13:25 | 37.23878 | -4.13605 | 35021 ft | 394 kts | 211° |
| 2026-05-04 13:26 | 37.18852 | -4.16381 | 35022 ft | 392 kts | 211° |
| 2026-05-04 13:26 | 37.13863 | -4.19134 | 35023 ft | 393 kts | 211° |
| 2026-05-04 13:27 | 37.08841 | -4.21899 | 35022 ft | 393 kts | 211° |
| 2026-05-04 13:27 | 37.03828 | -4.24657 | 35084 ft | 395 kts | 211° |
| 2026-05-04 13:28 | 37.01307 | -4.26040 | 35265 ft | 394 kts | 211° |
| 2026-05-04 13:28 | 36.98809 | -4.27411 | 35447 ft | 394 kts | 211° |
| 2026-05-04 13:28 | 36.96280 | -4.28802 | 35591 ft | 393 kts | 211° |
| 2026-05-04 13:28 | 36.93802 | -4.30161 | 35755 ft | 393 kts | 211° |
| 2026-05-04 13:29 | 36.91291 | -4.31536 | 35873 ft | 393 kts | 212° |
| 2026-05-04 13:29 | 36.88775 | -4.32914 | 36003 ft | 393 kts | 212° |
| 2026-05-04 13:29 | 36.86293 | -4.34271 | 36161 ft | 394 kts | 212° |
| 2026-05-04 13:29 | 36.83785 | -4.35686 | 36303 ft | 392 kts | 213° |
| 2026-05-04 13:30 | 36.81369 | -4.37217 | 36471 ft | 389 kts | 216° |
| 2026-05-04 13:30 | 36.79041 | -4.38869 | 36655 ft | 386 kts | 218° |
| 2026-05-04 13:30 | 36.76775 | -4.40646 | 36804 ft | 384 kts | 219° |
| 2026-05-04 13:30 | 36.74521 | -4.42434 | 36924 ft | 385 kts | 219° |
| 2026-05-04 13:31 | 36.69985 | -4.46026 | 36994 ft | 386 kts | 219° |
| 2026-05-04 13:31 | 36.65469 | -4.49606 | 36969 ft | 386 kts | 219° |
| 2026-05-04 13:32 | 36.60957 | -4.53179 | 36982 ft | 387 kts | 219° |
| 2026-05-04 13:32 | 36.56408 | -4.56782 | 36982 ft | 387 kts | 219° |
| 2026-05-04 13:33 | 36.51854 | -4.60380 | 36992 ft | 388 kts | 220° |
| 2026-05-04 13:33 | 36.47321 | -4.63962 | 36983 ft | 388 kts | 219° |
| 2026-05-04 13:34 | 36.42777 | -4.67539 | 36988 ft | 389 kts | 219° |
| 2026-05-04 13:34 | 36.38180 | -4.71161 | 36990 ft | 389 kts | 219° |
| 2026-05-04 13:35 | 36.31349 | -4.76532 | 36992 ft | 388 kts | 219° |
| 2026-05-04 13:36 | 36.26777 | -4.80119 | 36991 ft | 389 kts | 219° |
| 2026-05-04 13:36 | 36.22221 | -4.83693 | 36992 ft | 389 kts | 219° |
| 2026-05-04 13:37 | 36.17642 | -4.87275 | 36995 ft | 389 kts | 219° |
| 2026-05-04 13:37 | 36.13098 | -4.90835 | 36997 ft | 389 kts | 220° |
| 2026-05-04 13:38 | 36.08534 | -4.94451 | 37009 ft | 388 kts | 220° |
| 2026-05-04 13:38 | 36.03984 | -4.98051 | 37011 ft | 389 kts | 220° |
| 2026-05-04 13:39 | 35.99456 | -5.01627 | 37009 ft | 389 kts | 220° |
| 2026-05-04 13:39 | 35.94894 | -5.05228 | 37040 ft | 389 kts | 220° |
| 2026-05-04 13:40 | 35.90326 | -5.08829 | 37020 ft | 390 kts | 219° |
| 2026-05-04 13:40 | 35.85736 | -5.12437 | 37032 ft | 390 kts | 220° |
| 2026-05-04 13:41 | 35.81303 | -5.16209 | 37053 ft | 387 kts | 224° |
| 2026-05-04 13:41 | 35.76970 | -5.20197 | 37047 ft | 386 kts | 223° |
| 2026-05-04 13:42 | 35.70480 | -5.26165 | 37043 ft | 387 kts | 224° |
| 2026-05-04 13:42 | 35.66126 | -5.30164 | 37037 ft | 385 kts | 223° |
| 2026-05-04 13:43 | 35.62529 | -5.33468 | 37037 ft | 385 kts | 223° |
| 2026-05-04 13:43 | 35.57531 | -5.38051 | 37031 ft | 386 kts | 224° |
| 2026-05-04 13:44 | 35.53224 | -5.41993 | 37036 ft | 386 kts | 224° |
| 2026-05-04 13:44 | 35.48918 | -5.45935 | 37038 ft | 385 kts | 224° |
| 2026-05-04 13:45 | 35.44607 | -5.49870 | 37044 ft | 386 kts | 224° |
| 2026-05-04 13:45 | 35.40278 | -5.53822 | 37039 ft | 384 kts | 223° |
| 2026-05-04 13:46 | 35.35995 | -5.57722 | 37048 ft | 385 kts | 223° |
| 2026-05-04 13:46 | 35.31654 | -5.61670 | 37053 ft | 385 kts | 223° |
| 2026-05-04 13:47 | 35.27267 | -5.65653 | 37052 ft | 384 kts | 223° |
| 2026-05-04 13:47 | 35.22877 | -5.69636 | 37047 ft | 386 kts | 223° |
| 2026-05-04 13:48 | 35.18489 | -5.73613 | 37046 ft | 385 kts | 223° |
| 2026-05-04 13:48 | 35.14071 | -5.77607 | 37033 ft | 387 kts | 223° |
| 2026-05-04 13:49 | 35.09669 | -5.81587 | 37025 ft | 387 kts | 223° |
| 2026-05-04 13:49 | 35.05219 | -5.85601 | 37022 ft | 386 kts | 223° |
| 2026-05-04 13:50 | 35.00830 | -5.89555 | 37044 ft | 385 kts | 223° |
| 2026-05-04 13:50 | 34.97221 | -5.92802 | 37040 ft | 385 kts | 223° |